createdAt,value
2019-01-10T00:00:11.975Z,41.60
2019-01-10T00:02:40.278Z,41.68
2019-01-10T00:05:10.596Z,41.67
2019-01-10T00:07:38.977Z,41.73
2019-01-10T00:10:10.207Z,41.73
2019-01-10T00:12:39.534Z,41.77
2019-01-10T00:15:11.226Z,41.82
2019-01-10T00:17:39.664Z,41.92
2019-01-10T00:20:10.693Z,41.96
2019-01-10T00:22:39.068Z,41.87
2019-01-10T00:25:09.908Z,41.89
2019-01-10T00:27:38.281Z,41.94
2019-01-10T00:30:12.848Z,42.10
2019-01-10T00:32:41.220Z,42.04
2019-01-10T00:35:10.641Z,42.17
2019-01-10T00:37:39.011Z,42.13
2019-01-10T00:40:12.811Z,42.17
2019-01-10T00:42:49.253Z,42.16
2019-01-10T00:45:18.516Z,42.24
2019-01-10T00:47:48.495Z,42.43
2019-01-10T00:50:22.432Z,42.22
2019-01-10T00:52:50.806Z,42.28
2019-01-10T00:55:19.178Z,42.23
2019-01-10T00:57:47.708Z,42.17
2019-01-10T01:00:19.326Z,42.33
2019-01-10T01:02:47.793Z,42.33
2019-01-10T01:05:16.604Z,42.34
2019-01-10T01:07:45.065Z,42.40
2019-01-10T01:10:16.395Z,42.42
2019-01-10T01:12:44.797Z,42.45
2019-01-10T01:15:15.412Z,42.42
2019-01-10T01:17:43.869Z,42.49
2019-01-10T01:20:14.895Z,42.58
2019-01-10T01:22:43.284Z,42.54
2019-01-10T01:25:12.569Z,42.61
2019-01-10T01:27:40.953Z,42.58
2019-01-10T01:30:12.373Z,42.61
2019-01-10T01:32:40.757Z,42.68
2019-01-10T01:35:09.268Z,42.68
2019-01-10T01:37:37.728Z,42.64
2019-01-10T01:40:11.557Z,42.68
2019-01-10T01:42:39.948Z,42.74
2019-01-10T01:45:10.759Z,42.71
2019-01-10T01:47:39.218Z,42.75
2019-01-10T01:50:10.641Z,42.79
2019-01-10T01:52:39.022Z,42.84
2019-01-10T01:55:08.607Z,42.78
2019-01-10T01:57:36.998Z,42.81
2019-01-10T02:00:19.638Z,42.77
2019-01-10T02:02:48.020Z,42.97
2019-01-10T02:05:16.671Z,42.99
2019-01-10T02:07:45.186Z,42.86
2019-01-10T02:10:25.163Z,42.84
2019-01-10T02:12:53.548Z,42.94
2019-01-10T02:15:22.046Z,42.85
2019-01-10T02:17:50.426Z,42.98
2019-01-10T02:20:19.262Z,43.04
2019-01-10T02:22:47.648Z,42.96
2019-01-10T02:25:16.962Z,42.96
2019-01-10T02:27:45.411Z,43.08
2019-01-10T02:30:22.779Z,43.11
2019-01-10T02:32:51.172Z,43.03
2019-01-10T02:35:20.065Z,43.05
2019-01-10T02:37:48.631Z,43.07
2019-01-10T02:40:17.627Z,43.07
2019-01-10T02:42:46.008Z,43.05
2019-01-10T02:45:16.211Z,43.14
2019-01-10T02:47:44.589Z,43.16
2019-01-10T02:50:21.092Z,43.19
2019-01-10T02:52:50.441Z,43.16
2019-01-10T02:55:18.868Z,43.14
2019-01-10T02:57:47.246Z,43.27
2019-01-10T03:00:23.325Z,43.19
2019-01-10T03:02:51.802Z,43.25
2019-01-10T03:05:20.703Z,43.16
2019-01-10T03:07:49.068Z,43.32
2019-01-10T03:10:20.286Z,43.27
2019-01-10T03:12:48.651Z,43.23
2019-01-10T03:15:17.033Z,43.25
2019-01-10T03:17:45.405Z,43.25
2019-01-10T03:20:16.765Z,43.28
2019-01-10T03:22:45.137Z,43.30
2019-01-10T03:25:13.571Z,43.31
2019-01-10T03:27:41.946Z,43.43
2019-01-10T03:30:16.133Z,43.35
2019-01-10T03:32:44.508Z,43.47
2019-01-10T03:35:13.131Z,43.53
2019-01-10T03:37:41.508Z,43.51
2019-01-10T03:40:15.363Z,43.51
2019-01-10T03:42:43.816Z,43.47
2019-01-10T03:45:14.529Z,43.51
2019-01-10T03:47:42.892Z,43.60
2019-01-10T03:50:13.110Z,43.50
2019-01-10T03:52:41.539Z,43.57
2019-01-10T03:55:10.156Z,43.49
2019-01-10T03:57:38.524Z,43.57
2019-01-10T04:00:15.715Z,43.51
2019-01-10T04:02:44.147Z,43.62
2019-01-10T04:05:12.593Z,43.62
2019-01-10T04:07:40.973Z,43.63
2019-01-10T04:10:11.310Z,43.64
2019-01-10T04:12:39.661Z,43.56
2019-01-10T04:15:09.790Z,43.59
2019-01-10T04:17:38.155Z,43.63
2019-01-10T04:20:09.179Z,43.56
2019-01-10T04:22:37.561Z,43.58
2019-01-10T04:25:07.179Z,43.70
2019-01-10T04:27:35.546Z,43.70
2019-01-10T04:30:09.520Z,43.79
2019-01-10T04:32:37.888Z,43.66
2019-01-10T04:35:06.695Z,43.67
2019-01-10T04:37:35.071Z,43.79
2019-01-10T04:40:05.290Z,43.73
2019-01-10T04:42:33.664Z,43.61
2019-01-10T04:45:02.091Z,43.71
2019-01-10T04:47:32.489Z,43.71
2019-01-10T04:50:00.505Z,43.77
2019-01-10T04:52:28.875Z,43.84
2019-01-10T04:54:57.259Z,43.81
2019-01-10T04:57:25.621Z,44.02
2019-01-10T04:59:54.007Z,44.24
2019-01-10T05:02:22.373Z,44.30
2019-01-10T05:04:51.486Z,44.45
2019-01-10T05:07:19.861Z,44.72
2019-01-10T05:09:48.217Z,44.75
2019-01-10T05:12:16.596Z,44.77
2019-01-10T05:14:44.972Z,44.88
2019-01-10T05:17:13.353Z,45.08
2019-01-10T05:19:41.723Z,44.95
2019-01-10T05:22:10.107Z,45.07
2019-01-10T05:24:38.489Z,45.13
2019-01-10T05:27:06.860Z,45.16
2019-01-10T05:29:35.238Z,45.16
2019-01-10T05:32:03.619Z,45.28
2019-01-10T05:34:31.995Z,45.34
2019-01-10T05:37:00.366Z,45.45
2019-01-10T05:39:28.732Z,45.48
2019-01-10T05:41:57.110Z,45.54
2019-01-10T05:44:26.693Z,45.54
2019-01-10T05:46:55.241Z,45.69
2019-01-10T05:49:23.607Z,45.67
2019-01-10T05:51:52.022Z,45.63
2019-01-10T05:54:20.653Z,45.70
2019-01-10T05:56:49.133Z,45.81
2019-01-10T05:59:17.497Z,45.80
2019-01-10T06:01:45.880Z,45.82
2019-01-10T06:04:14.246Z,45.86
2019-01-10T06:06:42.627Z,45.81
2019-01-10T06:09:11.004Z,45.83
2019-01-10T06:11:39.382Z,45.93
2019-01-10T06:14:07.751Z,45.98
2019-01-10T06:16:36.133Z,45.99
2019-01-10T06:19:04.637Z,46.07
2019-01-10T06:21:33.027Z,46.08
2019-01-10T06:24:01.394Z,46.06
2019-01-10T06:26:29.767Z,45.85
2019-01-10T06:28:58.141Z,45.85
2019-01-10T06:31:26.518Z,45.78
2019-01-10T06:33:54.890Z,45.67
2019-01-10T06:36:23.257Z,45.53
2019-01-10T06:38:52.442Z,45.33
2019-01-10T06:41:20.883Z,45.04
2019-01-10T06:43:49.273Z,44.85
2019-01-10T06:46:17.639Z,44.54
2019-01-10T06:48:46.021Z,44.28
2019-01-10T06:51:14.384Z,43.97
2019-01-10T06:53:42.773Z,43.64
2019-01-10T06:56:11.149Z,43.42
2019-01-10T06:58:39.647Z,43.15
2019-01-10T07:01:07.966Z,42.92
2019-01-10T07:03:36.349Z,42.73
2019-01-10T07:06:04.718Z,42.39
2019-01-10T07:08:33.092Z,42.31
2019-01-10T07:11:01.460Z,42.23
2019-01-10T07:13:29.828Z,42.08
2019-01-10T07:15:58.193Z,42.01
2019-01-10T07:18:26.837Z,42.07
2019-01-10T07:20:55.227Z,42.19
2019-01-10T07:23:23.589Z,42.21
2019-01-10T07:25:55.063Z,42.34
2019-01-10T07:28:23.729Z,42.39
2019-01-10T07:30:54.543Z,42.54
2019-01-10T07:33:23.016Z,42.64
2019-01-10T07:35:55.673Z,42.81
2019-01-10T07:38:24.059Z,42.92
2019-01-10T07:40:53.052Z,43.05
2019-01-10T07:43:22.572Z,43.12
2019-01-10T07:45:50.941Z,43.29
2019-01-10T07:48:19.319Z,43.33
2019-01-10T07:50:47.686Z,43.55
2019-01-10T07:53:16.210Z,43.52
2019-01-10T07:55:44.585Z,43.67
2019-01-10T07:58:12.967Z,43.61
2019-01-10T08:00:41.410Z,43.85
2019-01-10T08:03:09.783Z,43.87
2019-01-10T08:05:38.144Z,44.04
2019-01-10T08:08:07.772Z,44.18
2019-01-10T08:10:36.619Z,44.00
2019-01-10T08:13:05.325Z,44.06
2019-01-10T08:15:33.714Z,44.17
2019-01-10T08:18:02.082Z,44.24
2019-01-10T08:20:30.472Z,44.30
2019-01-10T08:22:58.859Z,44.29
2019-01-10T08:25:28.000Z,44.32
2019-01-10T08:27:56.357Z,44.29
2019-01-10T08:30:25.170Z,44.28
2019-01-10T08:32:53.541Z,44.39
2019-01-10T08:35:23.178Z,44.37
2019-01-10T08:37:51.612Z,44.17
2019-01-10T08:40:20.054Z,43.58
2019-01-10T08:42:48.491Z,43.91
2019-01-10T08:45:21.727Z,43.90
2019-01-10T08:47:47.023Z,44.10
2019-01-10T08:50:18.382Z,44.07
2019-01-10T08:52:46.981Z,44.05
2019-01-10T08:55:15.363Z,44.11
2019-01-10T08:57:43.743Z,44.18
2019-01-10T09:00:15.166Z,44.11
2019-01-10T09:02:43.681Z,44.07
2019-01-10T09:05:12.394Z,44.00
2019-01-10T09:07:40.751Z,44.12
2019-01-10T09:10:12.163Z,44.28
2019-01-10T09:12:40.528Z,44.34
2019-01-10T09:15:09.749Z,44.47
2019-01-10T09:17:38.127Z,44.65
2019-01-10T09:20:09.912Z,44.68
2019-01-10T09:22:38.280Z,44.67
2019-01-10T09:25:07.092Z,44.73
2019-01-10T09:27:35.475Z,44.78
2019-01-10T09:30:05.704Z,44.66
2019-01-10T09:32:34.086Z,44.76
2019-01-10T09:35:02.474Z,44.87
2019-01-10T09:37:30.850Z,44.88
2019-01-10T09:39:59.217Z,44.88
2019-01-10T09:42:27.580Z,44.83
2019-01-10T09:44:55.951Z,44.82
2019-01-10T09:47:24.336Z,44.95
2019-01-10T09:49:52.710Z,45.03
2019-01-10T09:52:21.079Z,44.99
2019-01-10T09:54:49.448Z,45.08
2019-01-10T09:57:17.826Z,44.93
2019-01-10T09:59:46.208Z,44.93
2019-01-10T10:02:14.579Z,44.96
2019-01-10T10:04:42.957Z,45.11
2019-01-10T10:07:11.717Z,44.97
2019-01-10T10:09:40.087Z,44.88
2019-01-10T10:12:08.474Z,44.88
2019-01-10T10:14:36.843Z,44.87
2019-01-10T10:17:05.244Z,44.77
2019-01-10T10:19:33.613Z,44.69
2019-01-10T10:22:01.998Z,44.72
2019-01-10T10:24:30.359Z,44.60
2019-01-10T10:26:58.756Z,44.62
2019-01-10T10:29:27.141Z,44.68
2019-01-10T10:31:55.517Z,44.56
2019-01-10T10:34:24.762Z,44.43
2019-01-10T10:36:53.388Z,44.53
2019-01-10T10:39:21.758Z,44.46
2019-01-10T10:41:50.147Z,44.78
2019-01-10T10:44:18.514Z,44.72
2019-01-10T10:46:47.705Z,44.77
2019-01-10T10:49:16.079Z,44.56
2019-01-10T10:51:44.527Z,44.53
2019-01-10T10:54:12.894Z,44.40
2019-01-10T10:56:41.269Z,44.41
2019-01-10T10:59:09.643Z,44.33
2019-01-10T11:01:38.090Z,44.19
2019-01-10T11:04:06.816Z,44.22
2019-01-10T11:06:35.193Z,44.07
2019-01-10T11:09:09.266Z,43.96
2019-01-10T11:11:35.332Z,43.87
2019-01-10T11:14:03.722Z,43.67
2019-01-10T11:16:32.101Z,43.75
2019-01-10T11:19:00.504Z,43.78
2019-01-10T11:21:28.941Z,43.75
2019-01-10T11:23:57.403Z,43.65
2019-01-10T11:26:25.789Z,43.67
2019-01-10T11:28:54.169Z,43.73
2019-01-10T11:31:22.549Z,43.65
2019-01-10T11:33:50.993Z,43.67
2019-01-10T11:36:19.460Z,43.63
2019-01-10T11:38:47.910Z,43.65
2019-01-10T11:41:16.270Z,43.59
2019-01-10T11:43:44.789Z,43.54
2019-01-10T11:46:19.445Z,43.54
2019-01-10T11:48:43.395Z,43.43
2019-01-10T11:51:11.826Z,43.26
2019-01-10T11:53:40.200Z,43.34
2019-01-10T11:56:08.587Z,43.13
2019-01-10T11:58:36.954Z,43.30
2019-01-10T12:01:05.862Z,43.41
2019-01-10T12:03:34.246Z,43.26
2019-01-10T12:06:02.622Z,43.34
2019-01-10T12:08:31.014Z,43.36
2019-01-10T12:10:59.383Z,43.11
2019-01-10T12:13:27.772Z,43.11
2019-01-10T12:15:56.269Z,43.08
2019-01-10T12:18:24.638Z,42.93
2019-01-10T12:20:53.087Z,42.75
2019-01-10T12:23:21.457Z,42.79
2019-01-10T12:25:49.827Z,43.19
2019-01-10T12:28:18.213Z,42.98
2019-01-10T12:30:46.577Z,42.80
2019-01-10T12:33:14.951Z,42.72
2019-01-10T12:35:43.331Z,42.98
2019-01-10T12:38:11.721Z,46.36
2019-01-10T12:40:40.103Z,51.66
2019-01-10T12:43:08.476Z,53.89
2019-01-10T12:45:36.930Z,55.81
2019-01-10T12:48:05.359Z,55.49
2019-01-10T12:50:34.039Z,55.27
2019-01-10T12:53:02.400Z,54.69
2019-01-10T12:55:31.000Z,53.82
2019-01-10T12:57:59.482Z,53.28
2019-01-10T13:00:27.860Z,52.81
2019-01-10T13:02:56.954Z,52.30
2019-01-10T13:05:26.466Z,51.93
2019-01-10T13:08:03.105Z,51.56
2019-01-10T13:10:25.184Z,51.11
2019-01-10T13:12:53.549Z,50.98
2019-01-10T13:15:23.967Z,50.48
2019-01-10T13:17:52.586Z,50.54
2019-01-10T13:20:21.114Z,50.30
2019-01-10T13:22:49.641Z,50.20
2019-01-10T13:25:19.616Z,50.09
2019-01-10T13:27:48.424Z,49.92
2019-01-10T13:30:24.504Z,49.39
2019-01-10T13:32:53.237Z,49.07
2019-01-10T13:35:21.687Z,48.80
2019-01-10T13:37:50.121Z,49.04
2019-01-10T13:40:18.915Z,49.04
2019-01-10T13:42:47.400Z,48.47
2019-01-10T13:45:17.328Z,47.74
2019-01-10T13:47:47.616Z,47.46
2019-01-10T13:50:18.231Z,47.36
2019-01-10T13:52:46.617Z,46.93
2019-01-10T13:55:17.242Z,46.25
2019-01-10T13:57:45.682Z,46.12
2019-01-10T14:00:19.925Z,46.08
2019-01-10T14:02:48.431Z,45.99
2019-01-10T14:05:17.054Z,45.97
2019-01-10T14:07:45.556Z,45.95
2019-01-10T14:10:16.158Z,45.95
2019-01-10T14:12:44.761Z,45.96
2019-01-10T14:15:18.633Z,45.91
2019-01-10T14:17:47.138Z,45.92
2019-01-10T14:20:15.885Z,46.03
2019-01-10T14:22:44.248Z,46.00
2019-01-10T14:25:12.767Z,46.00
2019-01-10T14:27:41.121Z,46.07
2019-01-10T14:30:24.328Z,46.13
2019-01-10T14:32:52.694Z,46.16
2019-01-10T14:35:21.404Z,46.17
2019-01-10T14:37:49.929Z,46.18
2019-01-10T14:40:18.798Z,46.28
2019-01-10T14:42:47.180Z,46.65
2019-01-10T14:45:18.234Z,46.80
2019-01-10T14:47:46.693Z,46.86
2019-01-10T14:50:17.802Z,46.51
2019-01-10T14:52:46.250Z,46.16
2019-01-10T14:55:15.154Z,45.33
2019-01-10T14:57:43.661Z,44.68
2019-01-10T15:00:18.058Z,44.55
2019-01-10T15:02:46.509Z,44.70
2019-01-10T15:05:14.885Z,44.81
2019-01-10T15:07:43.339Z,44.93
2019-01-10T15:10:12.240Z,45.12
2019-01-10T15:12:41.929Z,45.17
2019-01-10T15:15:13.607Z,45.21
2019-01-10T15:17:42.110Z,45.47
2019-01-10T15:20:13.590Z,45.63
2019-01-10T15:22:42.041Z,45.29
2019-01-10T15:25:10.470Z,45.34
2019-01-10T15:27:38.844Z,45.43
2019-01-10T15:30:10.276Z,45.63
2019-01-10T15:32:38.666Z,45.51
2019-01-10T15:35:07.984Z,45.49
2019-01-10T15:37:36.360Z,45.53
2019-01-10T15:40:07.783Z,45.70
2019-01-10T15:42:36.163Z,45.94
2019-01-10T15:45:06.179Z,46.05
2019-01-10T15:47:34.563Z,45.91
2019-01-10T15:50:03.097Z,45.87
2019-01-10T15:52:31.475Z,45.84
2019-01-10T15:55:00.897Z,45.91
2019-01-10T15:57:29.248Z,45.84
2019-01-10T15:59:57.870Z,45.86
2019-01-10T16:02:26.244Z,45.90
2019-01-10T16:04:54.623Z,45.94
2019-01-10T16:07:23.009Z,45.95
2019-01-10T16:09:51.369Z,45.89
2019-01-10T16:12:19.741Z,45.95
2019-01-10T16:14:48.104Z,45.96
2019-01-10T16:17:16.492Z,46.21
2019-01-10T16:19:44.853Z,46.21
2019-01-10T16:22:13.231Z,46.21
2019-01-10T16:24:41.596Z,45.79
2019-01-10T16:27:09.959Z,45.10
2019-01-10T16:29:38.337Z,45.18
2019-01-10T16:32:06.704Z,45.84
2019-01-10T16:34:35.098Z,46.14
2019-01-10T16:37:03.463Z,46.03
2019-01-10T16:39:31.838Z,46.20
2019-01-10T16:42:00.208Z,46.15
2019-01-10T16:44:28.597Z,46.27
2019-01-10T16:46:56.956Z,46.13
2019-01-10T16:49:25.328Z,45.89
2019-01-10T16:51:53.702Z,45.79
2019-01-10T16:54:22.095Z,45.80
2019-01-10T16:56:50.450Z,46.62
2019-01-10T16:59:18.838Z,47.62
2019-01-10T17:01:47.217Z,49.23
2019-01-10T17:04:15.596Z,49.38
2019-01-10T17:06:43.967Z,50.62
2019-01-10T17:09:17.591Z,50.24
2019-01-10T17:11:42.450Z,49.92
2019-01-10T17:14:10.836Z,48.97
2019-01-10T17:16:39.204Z,48.42
2019-01-10T17:19:07.600Z,48.05
2019-01-10T17:21:35.966Z,47.81
2019-01-10T17:24:04.517Z,47.51
2019-01-10T17:26:32.881Z,47.26
2019-01-10T17:29:01.265Z,47.19
2019-01-10T17:31:29.631Z,47.03
2019-01-10T17:33:58.938Z,46.98
2019-01-10T17:36:27.301Z,47.05
2019-01-10T17:38:55.676Z,47.18
2019-01-10T17:41:24.052Z,47.20
2019-01-10T17:43:52.436Z,47.47
2019-01-10T17:46:20.847Z,47.88
2019-01-10T17:48:49.220Z,47.64
2019-01-10T17:51:17.642Z,47.62
2019-01-10T17:53:46.031Z,47.54
2019-01-10T17:56:14.394Z,47.48
2019-01-10T17:58:42.767Z,47.39
2019-01-10T18:01:11.142Z,47.32
2019-01-10T18:03:40.364Z,47.28
2019-01-10T18:06:08.985Z,47.24
2019-01-10T18:08:37.425Z,47.07
2019-01-10T18:11:05.940Z,47.36
2019-01-10T18:13:34.319Z,47.26
2019-01-10T18:16:02.711Z,47.32
2019-01-10T18:18:31.077Z,48.04
2019-01-10T18:20:59.465Z,48.17
2019-01-10T18:23:27.837Z,48.05
2019-01-10T18:25:56.229Z,48.30
2019-01-10T18:28:24.578Z,47.92
2019-01-10T18:30:52.961Z,48.05
2019-01-10T18:33:21.333Z,47.83
2019-01-10T18:35:49.705Z,47.88
2019-01-10T18:38:18.103Z,47.62
2019-01-10T18:40:46.453Z,47.72
2019-01-10T18:43:14.834Z,47.63
2019-01-10T18:45:43.210Z,47.97
2019-01-10T18:48:11.578Z,47.73
2019-01-10T18:50:39.956Z,47.94
2019-01-10T18:53:08.335Z,48.12
2019-01-10T18:55:36.714Z,48.00
2019-01-10T18:58:05.420Z,47.77
2019-01-10T19:00:33.814Z,47.83
2019-01-10T19:03:02.183Z,47.56
2019-01-10T19:05:30.625Z,47.75
2019-01-10T19:07:59.788Z,47.76
2019-01-10T19:10:28.139Z,47.76
2019-01-10T19:12:56.502Z,47.89
2019-01-10T19:15:24.945Z,48.25
2019-01-10T19:17:53.314Z,48.23
2019-01-10T19:20:23.748Z,48.26
2019-01-10T19:22:52.554Z,48.11
2019-01-10T19:25:21.012Z,48.17
2019-01-10T19:27:49.381Z,48.23
2019-01-10T19:30:20.439Z,47.78
2019-01-10T19:32:48.883Z,47.96
2019-01-10T19:35:17.250Z,48.08
2019-01-10T19:37:45.627Z,48.12
2019-01-10T19:40:16.831Z,48.05
2019-01-10T19:42:45.297Z,48.22
2019-01-10T19:45:15.899Z,48.26
2019-01-10T19:47:44.273Z,48.09
2019-01-10T19:50:15.874Z,48.11
2019-01-10T19:52:44.583Z,48.20
2019-01-10T19:55:14.895Z,48.25
2019-01-10T19:57:43.288Z,48.21
2019-01-10T20:00:17.470Z,48.19
2019-01-10T20:02:46.221Z,48.17
2019-01-10T20:05:14.971Z,48.17
2019-01-10T20:07:43.352Z,47.98
2019-01-10T20:10:14.268Z,48.15
2019-01-10T20:12:42.659Z,48.22
2019-01-10T20:15:11.379Z,48.03
2019-01-10T20:17:39.782Z,47.94
2019-01-10T20:20:14.530Z,47.81
2019-01-10T20:22:42.924Z,47.69
2019-01-10T20:25:11.308Z,47.58
2019-01-10T20:27:39.689Z,47.63
2019-01-10T20:30:14.456Z,47.57
2019-01-10T20:32:42.906Z,47.57
2019-01-10T20:35:11.424Z,47.49
2019-01-10T20:37:39.817Z,47.34
2019-01-10T20:40:11.318Z,47.30
2019-01-10T20:42:39.709Z,47.09
2019-01-10T20:45:09.728Z,46.88
2019-01-10T20:47:38.116Z,46.82
2019-01-10T20:50:12.108Z,46.68
2019-01-10T20:52:40.486Z,46.65
2019-01-10T20:55:12.030Z,46.57
2019-01-10T20:57:40.416Z,46.52
2019-01-10T21:00:12.108Z,46.55
2019-01-10T21:02:40.509Z,46.52
2019-01-10T21:05:08.939Z,46.55
2019-01-10T21:07:37.322Z,46.48
2019-01-10T21:10:08.756Z,46.57
2019-01-10T21:12:37.162Z,46.54
2019-01-10T21:15:08.916Z,46.60
2019-01-10T21:17:37.297Z,46.56
2019-01-10T21:20:07.995Z,46.54
2019-01-10T21:22:36.362Z,46.58
2019-01-10T21:25:05.882Z,46.50
2019-01-10T21:27:34.258Z,46.56
2019-01-10T21:30:02.718Z,46.55
2019-01-10T21:32:31.191Z,46.51
2019-01-10T21:34:59.583Z,46.54
2019-01-10T21:37:27.944Z,46.39
2019-01-10T21:39:56.332Z,46.42
2019-01-10T21:42:24.715Z,46.43
2019-01-10T21:44:53.094Z,46.45
2019-01-10T21:47:21.476Z,46.40
2019-01-10T21:49:50.022Z,46.45
2019-01-10T21:52:18.390Z,46.53
2019-01-10T21:54:46.769Z,46.40
2019-01-10T21:57:15.139Z,46.43
2019-01-10T21:59:43.525Z,46.33
2019-01-10T22:02:11.890Z,46.33
2019-01-10T22:04:40.265Z,46.43
2019-01-10T22:07:08.637Z,46.45
2019-01-10T22:09:37.012Z,46.38
2019-01-10T22:12:05.377Z,46.37
2019-01-10T22:14:33.756Z,46.45
2019-01-10T22:17:02.183Z,46.35
2019-01-10T22:19:30.598Z,46.34
2019-01-10T22:21:58.982Z,46.37
2019-01-10T22:24:27.413Z,46.31
2019-01-10T22:26:55.896Z,46.39
2019-01-10T22:29:24.344Z,46.43
2019-01-10T22:31:52.785Z,46.39
2019-01-10T22:34:21.232Z,46.41
2019-01-10T22:36:49.606Z,46.44
2019-01-10T22:39:18.000Z,46.41
2019-01-10T22:41:46.406Z,46.43
2019-01-10T22:44:14.778Z,46.47
2019-01-10T22:46:43.145Z,46.43
2019-01-10T22:49:11.520Z,46.47
2019-01-10T22:51:39.951Z,46.46
2019-01-10T22:54:08.325Z,46.47
2019-01-10T22:56:36.714Z,46.50
2019-01-10T22:59:05.134Z,46.49
2019-01-10T23:01:37.365Z,46.54
2019-01-10T23:04:06.278Z,46.53
2019-01-10T23:06:34.649Z,46.52
2019-01-10T23:09:04.053Z,46.56
2019-01-10T23:11:32.442Z,46.53
2019-01-10T23:14:00.868Z,46.49
2019-01-10T23:16:29.597Z,46.51
2019-01-10T23:18:58.035Z,46.58
2019-01-10T23:21:26.813Z,46.60
2019-01-10T23:24:00.256Z,46.60
2019-01-10T23:26:28.644Z,46.59
2019-01-10T23:28:57.006Z,46.59
2019-01-10T23:31:25.379Z,46.62
2019-01-10T23:33:53.748Z,46.63
2019-01-10T23:36:22.137Z,46.61
2019-01-10T23:39:12.992Z,46.63
2019-01-10T23:41:41.369Z,46.59
2019-01-10T23:44:09.732Z,46.60
2019-01-10T23:46:38.109Z,46.65
2019-01-10T23:49:06.481Z,46.66
2019-01-10T23:51:34.858Z,46.63
2019-01-10T23:54:03.380Z,46.59
2019-01-10T23:56:33.924Z,46.72
2019-01-10T23:59:02.656Z,46.73
